Meteo Giornale » Osservazioni meteo Italia » Verona-Villafranca

ore: 05:50 - Osservazioni Meteo Verona-Villafranca
Lat. 45° 23' N Lon. 10° 52' E Alt. 67 metri s.l.m.

sereno Europe/Rome

7 °C

Sereno

Temp. 24 Ore

4 °C

17 °C

Nord

3.7 Km/h

Dew point 6 °C

Umidità 93 %

Visibilità  10 Km

Il sole sorge alle ore 06:50

Il sole tramonta alle ore 17:09

Data e Ora Cielo e Fenomeni T °C DP °C Um. % Pres. hPa Vis. km Vento km/h
Oggi h: 05:50 sereno Sereno 7 6 93 1017 10 N 3.7
Oggi h: 05:20 sereno Sereno 7 6 93 1017 10 N 5.5
Oggi h: 04:50 sereno Sereno 7 6 93 1017 10 N 3.7
Oggi h: 04:20 sereno Sereno 7 6 93 1017 10 N 3.7
Oggi h: 03:50 sereno Sereno 7 6 93 1017 10 N 5.5
Oggi h: 03:20 sereno Sereno 6 6 100 1017 10 N 5.5
Oggi h: 02:50 sereno Sereno 6 6 100 1017 10 N 1.8
Oggi h: 02:20 sereno Sereno 7 6 93 1017 10 N 3.7
Oggi h: 01:50 sereno Sereno 6 6 100 1018 10 N 1.8
Oggi h: 01:20 sereno Sereno 7 6 93 1017 10 N 1.8
Oggi h: 00:50 sereno Sereno 8 7 93 1017 10 N 1.8
Oggi h: 00:20 poco_nuvoloso Poco Nuvoloso 8 7 93 1018 10 N 3.7
Ieri h: 23:50 poco_nuvoloso Poco Nuvoloso 7 6 93 1017 10 N 3.7
Ieri h: 23:20 nuvoloso Nuvoloso 7 7 100 1018 10 N 1.8
Ieri h: 22:50 sereno Sereno 8 7 93 1018 10 N 3.7
Ieri h: 22:20 sereno Sereno 8 7 93 1018 10 N 5.5
Ieri h: 21:50 sereno Sereno 8 7 93 1018 10 N 3.7
Ieri h: 21:20 sereno Sereno 8 7 93 1018 10 N 3.7
Ieri h: 20:50 sereno Sereno 8 7 93 1018 10 N 5.5
Ieri h: 20:20 sereno Sereno 9 8 93 1018 10 N 1.8
Ieri h: 19:50 sereno Sereno 9 8 93 1017 10 N 5.5
Ieri h: 19:20 sereno Sereno 10 8 87 1017 10 N 3.7
Ieri h: 18:50 sereno Sereno 11 8 81 1017 10 O 9.3
Ieri h: 18:20 sereno Sereno 12 9 81 1017 10 O/NO 7.4
Ieri h: 17:50 sereno Sereno 12 7 71 1016 10 O 7.4
Ieri h: 17:20 poco_nuvoloso Poco Nuvoloso 14 9 71 1016 10 N 5.5
Ieri h: 16:50 sereno Sereno 14 9 71 1016 10 N 5.5
Ieri h: 16:20 sereno Sereno 16 8 58 1016 10 O 9.3
Ieri h: 15:50 sereno Sereno 16 8 58 1017 10 O 11.1
Ieri h: 15:20 sereno Sereno 17 8 55 1017 10 O 13
Ieri h: 14:50 sereno Sereno 17 8 55 1016 10 O 11.1
Ieri h: 14:20 sereno Sereno 17 9 59 1016 10 O 9.3
Ieri h: 13:50 sereno Sereno 17 8 55 1017 10 O/NO 11.1
Ieri h: 13:20 sereno Sereno 16 7 55 1017 10 O/NO 16.7
Ieri h: 12:50 sereno Sereno 16 7 55 1017 10 O 16.7
Ieri h: 12:20 sereno Sereno 16 7 55 1017 10 O/SO 13
Ieri h: 11:50 sereno Sereno 16 6 51 1018 10 O 13
Ieri h: 11:20 sereno Sereno 15 7 58 1018 10 O 14.8
Ieri h: 10:50 sereno Sereno 15 7 58 1017 10 O 13
Ieri h: 10:20 poco_nuvoloso Poco Nuvoloso 14 9 71 1017 10 O/SO 9.3
Ieri h: 09:50 nuvoloso Nuvoloso 12 7 71 1017 10 N 3.7
Ieri h: 09:20 poco_nuvoloso Poco Nuvoloso 11 8 81 1017 10 O/NO 9.3
Ieri h: 08:50 poco_nuvoloso Poco Nuvoloso 9 8 93 1017 10 N 3.7
Ieri h: 07:20 poco_nuvoloso Poco Nuvoloso 5 5 100 1016 10 N 1.8
Ieri h: 06:50 poco_nuvoloso Poco Nuvoloso 5 4 93 1016 10 N 3.7
Ieri h: 06:20 sereno Sereno 5 4 93 1016 10 O/NO 9.3
Ieri h: 05:50 sereno Sereno 4 4 100 1016 10 N 3.7